Time;durP1;ratioP1;P1;durP2;ratioP2;P2;SDS_P1;SDS_P2;PMS_P1;PMS_P2;Temp;Humidity;BMP_temperature;BMP_pressure;BME280_temperature;BME280_humidity;BME280_pressure;Samples;Min_cycle;Max_cycle;Signal;HPM_P1;HPM_P2
2022/11/10 00:00:20;;;;;;;29.10;3.85;;;;;;;11.10;100.00;101669.34;5006685;28;20361;-63
2022/11/10 00:02:46;;;;;;;27.40;3.65;;;;;;;11.07;100.00;101672.03;5025031;28;20048;-68
2022/11/10 00:05:12;;;;;;;19.58;3.50;;;;;;;10.97;100.00;101688.97;5027211;28;20105;-61
2022/11/10 00:07:38;;;;;;;23.88;3.47;;;;;;;10.89;100.00;101690.91;5026294;28;20396;-67
2022/11/10 00:10:04;;;;;;;21.48;3.45;;;;;;;10.80;100.00;101692.84;5027475;28;20140;-67
2022/11/10 00:12:30;;;;;;;27.05;3.47;;;;;;;10.68;100.00;101693.06;5026594;28;20570;-68
2022/11/10 00:17:39;;;;;;;24.48;3.17;;;;;;;10.53;100.00;101692.50;5026898;28;20689;-67
2022/11/10 00:20:05;;;;;;;23.55;3.50;;;;;;;10.54;100.00;101693.38;5027665;28;20104;-68
2022/11/10 00:22:33;;;;;;;28.02;3.25;;;;;;;10.49;100.00;101688.19;5028060;28;20112;-68
2022/11/10 00:24:58;;;;;;;26.63;3.45;;;;;;;10.49;100.00;101698.72;5027882;28;20033;-65
2022/11/10 00:27:23;;;;;;;22.35;4.03;;;;;;;10.56;100.00;101702.97;5028232;28;20103;-67
2022/11/10 00:29:48;;;;;;;30.65;3.80;;;;;;;10.58;100.00;101703.84;5022395;28;20068;-67
2022/11/10 00:32:14;;;;;;;31.52;3.80;;;;;;;10.60;100.00;101695.91;5005998;28;20045;-67
2022/11/10 00:34:39;;;;;;;27.52;3.83;;;;;;;10.64;100.00;101697.56;5005931;28;20027;-65
2022/11/10 00:37:04;;;;;;;30.40;4.00;;;;;;;10.73;100.00;101692.13;5007749;28;20030;-67
2022/11/10 00:39:30;;;;;;;20.27;3.38;;;;;;;10.82;100.00;101692.81;5008246;28;20034;-66
2022/11/10 00:41:55;;;;;;;29.65;3.58;;;;;;;10.91;100.00;101691.72;5008297;28;20018;-67
2022/11/10 00:44:21;;;;;;;24.95;3.53;;;;;;;10.91;100.00;101697.00;5007176;28;20080;-66
2022/11/10 00:46:46;;;;;;;33.70;4.38;;;;;;;10.95;100.00;101681.09;5007673;28;20025;-69
2022/11/10 00:49:11;;;;;;;26.80;3.85;;;;;;;10.98;100.00;101695.97;5008312;28;20037;-66
2022/11/10 00:51:37;;;;;;;34.67;3.67;;;;;;;10.90;100.00;101701.44;5008168;28;20495;-68
2022/11/10 00:54:02;;;;;;;24.73;4.10;;;;;;;10.87;100.00;101715.53;5006957;28;20034;-66
2022/11/10 00:56:28;;;;;;;33.65;4.18;;;;;;;10.84;100.00;101718.22;5007318;28;20037;-65
2022/11/10 00:58:53;;;;;;;21.60;3.97;;;;;;;10.79;100.00;101716.59;5007278;28;20105;-67
2022/11/10 01:01:19;;;;;;;34.20;4.70;;;;;;;10.77;100.00;101721.88;5006497;28;20358;-64
2022/11/10 01:03:45;;;;;;;31.08;4.10;;;;;;;10.79;100.00;101719.22;5008154;28;20072;-67
2022/11/10 01:06:13;;;;;;;25.75;3.67;;;;;;;10.86;100.00;101729.63;5007491;28;20116;-67
2022/11/10 01:08:39;;;;;;;22.45;3.92;;;;;;;10.96;100.00;101719.72;5007926;28;20087;-60
2022/11/10 01:11:08;;;;;;;27.42;4.38;;;;;;;10.99;100.00;101722.31;5007366;28;20037;-69
2022/11/10 01:13:34;;;;;;;30.85;4.00;;;;;;;10.99;100.00;101716.19;5006181;28;20030;-66
2022/11/10 01:16:11;;;;;;;26.50;4.10;;;;;;;11.01;100.00;101724.91;5005909;28;20026;-66
2022/11/10 01:18:37;;;;;;;18.20;3.78;;;;;;;11.03;100.00;101730.16;5007101;28;20080;-66
2022/11/10 01:21:03;;;;;;;23.23;3.78;;;;;;;10.94;100.00;101732.09;5007633;28;20461;-68
2022/11/10 01:23:28;;;;;;;23.02;4.15;;;;;;;10.87;100.00;101733.97;5007356;28;20026;-68
2022/11/10 01:25:58;;;;;;;32.67;4.07;;;;;;;10.89;100.00;101731.31;5023217;28;20025;-62
2022/11/10 01:28:24;;;;;;;27.13;3.85;;;;;;;10.81;100.00;101731.47;5027985;28;20109;-66
2022/11/10 01:30:56;;;;;;;30.92;3.70;;;;;;;10.76;100.00;101733.34;5029623;28;20120;-68
2022/11/10 01:33:21;;;;;;;37.75;4.60;;;;;;;10.74;100.00;101735.13;5030654;28;20083;-66
2022/11/10 01:35:47;;;;;;;28.10;3.80;;;;;;;10.72;100.00;101736.94;5031270;28;20033;-67
2022/11/10 01:38:12;;;;;;;21.45;3.95;;;;;;;10.71;100.00;101737.81;5031493;28;20078;-69
2022/11/10 01:40:37;;;;;;;28.15;4.13;;;;;;;10.68;100.00;101730.84;5030869;28;20104;-62
2022/11/10 01:43:02;;;;;;;21.55;3.40;;;;;;;10.69;100.00;101737.00;5030790;28;20074;-66
2022/11/10 01:45:51;;;;;;;36.13;4.70;;;;;;;10.71;100.00;101730.81;5031186;28;20057;-69
2022/11/10 01:48:46;;;;;;;25.10;4.35;;;;;;;10.66;100.00;101735.31;5030256;28;20048;-68
2022/11/10 01:51:18;;;;;;;35.90;3.83;;;;;;;10.71;100.00;101746.63;5029515;28;20478;-67
2022/11/10 01:53:47;;;;;;;27.00;4.47;;;;;;;10.67;100.00;101749.34;5021111;28;20025;-66
2022/11/10 01:56:13;;;;;;;21.58;3.40;;;;;;;10.65;100.00;101762.53;5006571;28;20030;-67
2022/11/10 01:58:43;;;;;;;24.08;4.35;;;;;;;10.59;100.00;101754.75;5008540;28;20054;-65
2022/11/10 02:01:09;;;;;;;28.38;5.15;;;;;;;10.54;100.00;101761.91;5008359;28;20029;-66
2022/11/10 02:03:42;;;;;;;29.60;4.35;;;;;;;10.52;100.00;101758.41;5011002;28;20026;-68
2022/11/10 02:06:08;;;;;;;32.45;3.78;;;;;;;10.45;100.00;101770.81;5009567;28;20025;-69
2022/11/10 02:08:34;;;;;;;31.80;4.38;;;;;;;10.43;100.00;101768.19;5009844;28;20109;-68
2022/11/10 02:10:59;;;;;;;19.85;3.63;;;;;;;10.44;100.00;101769.94;5010650;28;20033;-68
2022/11/10 02:13:25;;;;;;;30.40;3.63;;;;;;;10.42;100.00;101776.13;5010414;28;20022;-65
2022/11/10 02:15:50;;;;;;;35.97;4.18;;;;;;;10.43;100.00;101780.50;5011087;28;20076;-67
2022/11/10 02:18:15;;;;;;;23.75;3.80;;;;;;;10.41;100.00;101787.59;5009597;28;20110;-68
2022/11/10 02:20:45;;;;;;;37.60;4.40;;;;;;;10.38;100.00;101798.16;5010718;28;20030;-65
2022/11/10 02:23:33;;;;;;;30.80;4.22;;;;;;;10.35;100.00;101791.16;5009402;28;20376;-66
2022/11/10 02:26:00;;;;;;;26.42;3.42;;;;;;;10.33;100.00;101800.88;5010384;28;20476;-67
2022/11/10 02:28:26;;;;;;;27.52;3.75;;;;;;;10.31;100.00;101800.91;5009981;28;20033;-68
2022/11/10 02:30:52;;;;;;;26.58;4.00;;;;;;;10.26;100.00;101796.63;5022122;28;20022;-67
2022/11/10 02:33:17;;;;;;;31.33;4.68;;;;;;;10.25;100.00;101801.00;5007426;28;20103;-66
2022/11/10 02:35:43;;;;;;;25.42;3.55;;;;;;;10.24;100.00;101804.53;5007919;28;20112;-66
2022/11/10 02:38:09;;;;;;;25.38;3.80;;;;;;;10.27;100.00;101809.75;5014890;28;20029;-67
2022/11/10 02:40:34;;;;;;;26.33;3.88;;;;;;;10.24;100.00;101812.44;5029343;28;20029;-65
2022/11/10 02:43:00;;;;;;;32.90;4.05;;;;;;;10.23;100.00;101814.19;5020153;28;20026;-66
2022/11/10 02:45:25;;;;;;;26.63;3.67;;;;;;;10.27;100.00;101816.78;5009323;28;20035;-67
2022/11/10 02:47:51;;;;;;;33.00;4.18;;;;;;;10.27;100.00;101825.56;5008531;28;20045;-69
2022/11/10 02:50:16;;;;;;;27.20;4.18;;;;;;;10.21;100.00;101828.31;5009247;28;20030;-64
2022/11/10 02:52:41;;;;;;;33.05;3.65;;;;;;;10.20;100.00;101822.16;5007858;28;20049;-68
2022/11/10 02:55:07;;;;;;;36.58;4.30;;;;;;;10.19;100.00;101822.19;5009268;28;20498;-69
2022/11/10 02:57:32;;;;;;;34.58;3.58;;;;;;;10.20;100.00;101829.19;5007842;28;20060;-67
2022/11/10 02:59:57;;;;;;;23.92;3.50;;;;;;;10.22;100.00;101828.28;5009153;28;20400;-67
2022/11/10 03:02:23;;;;;;;24.70;3.33;;;;;;;10.20;100.00;101830.06;5008021;28;20048;-68
2022/11/10 03:04:48;;;;;;;21.23;3.10;;;;;;;10.17;100.00;101830.09;5009978;28;20029;-67
2022/11/10 03:07:13;;;;;;;23.50;3.53;;;;;;;10.16;100.00;101827.50;5008605;28;20042;-68
2022/11/10 03:09:39;;;;;;;33.72;4.82;;;;;;;10.09;100.00;101840.75;5019570;28;20507;-66
2022/11/10 03:12:04;;;;;;;32.58;3.95;;;;;;;10.07;100.00;101839.03;5028206;28;20028;-66
2022/11/10 03:14:30;;;;;;;26.20;3.55;;;;;;;10.03;100.00;101840.88;5027878;28;20034;-68
2022/11/10 03:16:55;;;;;;;28.83;3.45;;;;;;;9.98;100.00;101840.94;5027739;28;20104;-69
2022/11/10 03:19:20;;;;;;;26.98;3.60;;;;;;;9.98;100.00;101848.84;5028735;28;20079;-64
2022/11/10 03:21:46;;;;;;;22.67;3.38;;;;;;;9.99;100.00;101849.69;5028838;28;20068;-66
2022/11/10 03:24:11;;;;;;;30.10;3.70;;;;;;;10.03;100.00;101845.25;5028405;28;20075;-67
2022/11/10 03:26:36;;;;;;;30.92;4.40;;;;;;;9.99;100.00;101847.06;5028850;28;20034;-67
2022/11/10 03:29:02;;;;;;;37.15;3.78;;;;;;;10.07;100.00;101849.56;5018829;28;20030;-68
2022/11/10 03:31:27;;;;;;;22.05;2.85;;;;;;;10.07;100.00;101849.56;5007847;28;20032;-63
2022/11/10 03:33:52;;;;;;;32.25;3.42;;;;;;;10.07;100.00;101853.09;5007052;28;20033;-67
2022/11/10 03:36:18;;;;;;;39.53;4.53;;;;;;;10.05;100.00;101857.50;5008443;28;20025;-65
2022/11/10 03:38:43;;;;;;;31.85;3.90;;;;;;;10.11;100.00;101856.53;5009029;28;20273;-66
2022/11/10 03:41:08;;;;;;;27.73;3.10;;;;;;;10.04;100.00;101860.16;5008497;28;20045;-68
2022/11/10 03:43:34;;;;;;;48.00;3.78;;;;;;;10.07;100.00;101861.00;5008596;28;20018;-65
2022/11/10 03:45:59;;;;;;;36.17;4.00;;;;;;;10.09;100.00;101867.09;5007671;28;20030;-64
2022/11/10 03:48:24;;;;;;;24.67;3.22;;;;;;;10.13;100.00;101867.91;5008627;28;20499;-64
2022/11/10 03:50:49;;;;;;;31.38;3.60;;;;;;;10.21;100.00;101866.03;5008549;28;20046;-65
2022/11/10 03:53:15;;;;;;;42.85;4.10;;;;;;;10.21;100.00;101873.94;5007335;28;20044;-67
2022/11/10 03:55:40;;;;;;;31.58;3.53;;;;;;;10.24;100.00;101879.16;5008436;28;20380;-68
2022/11/10 03:58:06;;;;;;;44.95;5.05;;;;;;;10.30;100.00;101883.44;5007276;28;20038;-60
2022/11/10 04:00:31;;;;;;;35.08;4.30;;;;;;;10.34;100.00;101882.53;5008095;28;20068;-63
2022/11/10 04:02:56;;;;;;;28.25;3.95;;;;;;;10.29;100.00;101886.13;5006943;28;20048;-67
2022/11/10 04:10:56;;;;;;;29.13;3.58;;;;;;;10.38;100.00;101898.28;5008412;28;20065;-71
2022/11/10 04:16:05;;;;;;;24.42;3.92;;;;;;;10.39;100.00;101907.91;5007725;28;20049;-68
2022/11/10 04:18:31;;;;;;;29.40;3.58;;;;;;;10.33;100.00;101911.53;5008626;28;20392;-66
2022/11/10 04:20:58;;;;;;;23.50;3.70;;;;;;;10.36;100.00;101919.38;5008634;28;20415;-62
2022/11/10 04:23:25;;;;;;;38.33;3.83;;;;;;;10.32;100.00;101918.56;5008070;28;20105;-69
2022/11/10 04:28:48;;;;;;;32.10;3.97;;;;;;;10.33;100.00;101906.25;5007750;28;20100;-62
2022/11/10 04:31:15;;;;;;;34.70;4.63;;;;;;;10.32;100.00;101918.56;5022647;28;20017;-67
2022/11/10 04:33:41;;;;;;;25.48;3.97;;;;;;;10.36;100.00;101919.38;5025588;28;20017;-68
2022/11/10 04:36:07;;;;;;;39.78;4.60;;;;;;;10.32;100.00;101913.28;5026977;28;20044;-64
2022/11/10 04:38:33;;;;;;;32.05;4.47;;;;;;;10.32;100.00;101922.94;5027572;28;20092;-67
2022/11/10 04:40:59;;;;;;;37.40;4.88;;;;;;;10.28;100.00;101937.94;5026427;28;20188;-68
2022/11/10 04:43:24;;;;;;;40.58;4.30;;;;;;;10.35;100.00;101949.25;5027848;28;20033;-64
2022/11/10 04:45:49;;;;;;;28.75;4.13;;;;;;;10.30;100.00;101936.13;5014221;28;20030;-67
2022/11/10 04:48:15;;;;;;;34.67;4.97;;;;;;;10.33;100.00;101941.34;5006844;28;20437;-67
2022/11/10 04:50:40;;;;;;;35.00;4.50;;;;;;;10.34;100.00;101944.88;5006541;28;20471;-65
2022/11/10 04:53:05;;;;;;;33.30;4.43;;;;;;;10.33;100.00;101949.25;5007783;28;20022;-64
2022/11/10 04:55:31;;;;;;;28.67;4.03;;;;;;;10.38;100.00;101953.63;5008210;28;20028;-67
2022/11/10 04:57:56;;;;;;;37.30;4.90;;;;;;;10.35;100.00;101963.28;5001833;28;20120;-67
2022/11/10 05:00:21;;;;;;;29.38;4.28;;;;;;;10.28;100.00;101958.13;4988948;28;20539;-62
2022/11/10 05:02:47;;;;;;;36.22;5.57;;;;;;;10.30;100.00;101957.22;4988187;28;20393;-69
2022/11/10 05:05:12;;;;;;;28.40;5.38;;;;;;;10.24;100.00;101952.91;4999567;28;20026;-68
2022/11/10 05:07:37;;;;;;;29.02;4.88;;;;;;;10.29;100.00;101959.91;5010836;28;20045;-68
2022/11/10 05:10:03;;;;;;;31.63;5.45;;;;;;;10.31;100.00;101966.00;5010425;28;20034;-63
2022/11/10 05:12:29;;;;;;;30.13;4.50;;;;;;;10.34;100.00;101963.31;5011864;28;20010;-68
2022/11/10 05:14:54;;;;;;;28.52;5.35;;;;;;;10.30;100.00;101967.75;5010296;28;20022;-63
2022/11/10 05:17:20;;;;;;;31.20;4.93;;;;;;;10.27;100.00;101967.81;5015749;28;20037;-65
2022/11/10 05:19:46;;;;;;;33.42;5.28;;;;;;;10.29;100.00;101970.44;5011631;28;20021;-68
2022/11/10 05:22:11;;;;;;;30.17;5.22;;;;;;;10.31;100.00;101973.91;5010706;28;20026;-67
2022/11/10 05:24:37;;;;;;;27.52;4.43;;;;;;;10.33;100.00;101978.25;5010963;28;20365;-66
2022/11/10 05:27:02;;;;;;;28.25;4.88;;;;;;;10.34;100.00;101971.22;5009650;28;20041;-69
2022/11/10 05:29:27;;;;;;;43.63;5.75;;;;;;;10.35;100.00;101973.84;5011243;28;20018;-70
2022/11/10 05:31:53;;;;;;;35.47;5.32;;;;;;;10.34;100.00;101980.00;5009204;28;20052;-69
2022/11/10 05:34:18;;;;;;;41.15;5.20;;;;;;;10.37;100.00;101981.72;5011169;28;20461;-67
2022/11/10 05:36:43;;;;;;;28.65;4.43;;;;;;;10.30;100.00;101978.28;5009775;28;20511;-69
2022/11/10 05:39:09;;;;;;;35.60;4.80;;;;;;;10.34;100.00;101985.28;5010041;28;20409;-68
2022/11/10 05:41:34;;;;;;;35.55;5.25;;;;;;;10.32;100.00;101986.16;5011465;28;20398;-68
2022/11/10 05:43:59;;;;;;;37.10;5.13;;;;;;;10.32;100.00;101980.91;5010744;28;20499;-65
2022/11/10 05:46:25;;;;;;;28.90;4.65;;;;;;;10.27;100.00;101982.75;5008758;28;20022;-63
2022/11/10 05:48:50;;;;;;;31.38;4.82;;;;;;;10.29;100.00;101987.09;5010673;28;20061;-65
2022/11/10 05:51:15;;;;;;;28.38;4.30;;;;;;;10.24;100.00;101978.41;5009432;28;20548;-68
2022/11/10 05:53:41;;;;;;;25.27;4.63;;;;;;;10.31;100.00;101985.31;5009372;28;20496;-66
2022/11/10 05:56:06;;;;;;;30.63;4.97;;;;;;;10.27;100.00;101982.75;5010259;28;20060;-65
2022/11/10 05:58:32;;;;;;;22.95;4.63;;;;;;;10.29;100.00;101980.97;5010532;28;20647;-68
2022/11/10 06:00:57;;;;;;;28.38;4.93;;;;;;;10.30;100.00;101991.44;5007485;28;20377;-69
2022/11/10 06:03:22;;;;;;;29.33;4.63;;;;;;;10.29;100.00;101989.72;5010011;28;20026;-67
2022/11/10 06:05:48;;;;;;;36.80;4.85;;;;;;;10.33;100.00;102004.59;5008733;28;20117;-67
2022/11/10 06:08:13;;;;;;;33.35;5.18;;;;;;;10.28;100.00;102006.44;5009294;28;20046;-67
2022/11/10 06:10:39;;;;;;;31.77;4.57;;;;;;;10.31;100.00;102011.66;5009895;28;20022;-68
2022/11/10 06:13:04;;;;;;;20.50;3.92;;;;;;;10.28;100.00;102014.34;5008256;28;20023;-70
2022/11/10 06:15:30;;;;;;;37.53;5.03;;;;;;;10.30;100.00;102023.06;5002500;28;20088;-68
2022/11/10 06:17:56;;;;;;;35.22;5.00;;;;;;;10.30;100.00;102028.34;5009469;28;20022;-68
2022/11/10 06:20:22;;;;;;;27.48;5.30;;;;;;;10.23;100.00;102031.94;5010610;28;20034;-69
2022/11/10 06:23:01;;;;;;;30.75;5.47;;;;;;;10.28;100.00;102039.78;5008449;28;20029;-66
2022/11/10 06:25:28;;;;;;;31.50;4.78;;;;;;;10.28;100.00;102037.16;5007729;28;20495;-70
2022/11/10 06:27:53;;;;;;;31.27;5.20;;;;;;;10.20;100.00;102039.88;5006732;28;20061;-70
2022/11/10 06:30:19;;;;;;;25.30;4.60;;;;;;;10.18;100.00;102042.53;5009189;28;20053;-66
2022/11/10 06:32:44;;;;;;;30.80;4.85;;;;;;;10.20;100.00;102046.03;5007929;28;20061;-69
2022/11/10 06:35:10;;;;;;;32.38;4.78;;;;;;;10.22;100.00;102048.66;5010433;28;20040;-67
2022/11/10 06:37:37;;;;;;;27.77;4.43;;;;;;;10.29;100.00;102050.31;5004731;28;20026;-70
2022/11/10 06:40:05;;;;;;;30.85;5.05;;;;;;;10.32;100.00;102055.53;4993540;28;20229;-67
2022/11/10 06:42:30;;;;;;;20.25;4.88;;;;;;;10.28;100.00;102053.84;4999760;28;20075;-65
2022/11/10 06:44:56;;;;;;;28.13;4.72;;;;;;;10.35;100.00;102060.78;4995453;28;20034;-71
2022/11/10 06:47:21;;;;;;;35.60;4.70;;;;;;;10.36;100.00;102062.50;4998935;28;20075;-63
2022/11/10 06:49:46;;;;;;;35.65;4.65;;;;;;;10.38;100.00;102077.44;4997553;28;20058;-65
2022/11/10 06:52:12;;;;;;;38.15;5.78;;;;;;;10.41;100.00;102082.69;4994969;28;20718;-69
2022/11/10 06:54:37;;;;;;;37.05;4.55;;;;;;;10.34;100.00;102098.56;4997393;28;20077;-69
2022/11/10 06:57:03;;;;;;;34.40;4.40;;;;;;;10.43;100.00;102094.06;4997651;28;20030;-68
2022/11/10 06:59:28;;;;;;;32.20;4.68;;;;;;;10.44;100.00;102096.66;4999328;28;20030;-68
2022/11/10 07:01:53;;;;;;;27.50;4.50;;;;;;;10.45;100.00;102105.47;4999175;28;20049;-67
2022/11/10 07:04:18;;;;;;;38.72;4.65;;;;;;;10.51;100.00;102113.31;4995512;28;20050;-67
2022/11/10 07:06:46;;;;;;;25.63;4.50;;;;;;;10.47;100.00;102112.47;4997400;28;20053;-69
2022/11/10 07:09:11;;;;;;;34.97;5.10;;;;;;;10.53;100.00;102115.94;4996589;28;20029;-70
2022/11/10 07:11:36;;;;;;;31.92;4.50;;;;;;;10.60;100.00;102110.53;4998672;28;20026;-66
2022/11/10 07:14:02;;;;;;;37.03;5.10;;;;;;;10.63;100.00;102120.19;4995119;28;20126;-67
2022/11/10 07:16:27;;;;;;;26.85;4.43;;;;;;;10.68;100.00;102120.09;4997707;28;20101;-70
2022/11/10 07:18:53;;;;;;;27.60;4.53;;;;;;;10.72;100.00;102120.03;4995836;28;20487;-66
2022/11/10 07:21:18;;;;;;;31.13;4.45;;;;;;;10.74;100.00;102110.34;4996376;28;20022;-71
2022/11/10 07:23:45;;;;;;;34.67;4.25;;;;;;;10.78;100.00;102103.28;4995249;28;20034;-67
2022/11/10 07:26:11;;;;;;;28.50;4.32;;;;;;;10.83;100.00;102092.66;5001571;28;20036;-72
2022/11/10 07:28:36;;;;;;;29.65;4.50;;;;;;;10.89;100.00;102099.63;4997269;28;20026;-67
2022/11/10 07:31:02;;;;;;;34.20;4.40;;;;;;;10.93;100.00;102109.22;4996485;28;20050;-68
2022/11/10 07:33:27;;;;;;;31.42;4.68;;;;;;;10.92;100.00;102113.63;5000727;28;20037;-72
2022/11/10 07:35:55;;;;;;;27.48;4.20;;;;;;;10.97;100.00;102122.34;5011692;28;20026;-72
2022/11/10 07:38:20;;;;;;;29.75;4.57;;;;;;;10.99;100.00;102131.09;5007648;28;20100;-71
2022/11/10 07:40:49;;;;;;;28.30;3.92;;;;;;;10.99;100.00;102131.09;5007312;28;20484;-70
2022/11/10 07:43:15;;;;;;;20.30;4.05;;;;;;;11.05;100.00;102131.91;5006976;28;20033;-68
2022/11/10 07:45:40;;;;;;;24.73;4.18;;;;;;;11.10;100.00;102127.41;5006547;28;20644;-70
2022/11/10 07:48:05;;;;;;;24.17;3.95;;;;;;;11.22;100.00;102143.06;5006342;28;20022;-68
2022/11/10 07:50:32;;;;;;;27.92;4.20;;;;;;;11.32;100.00;102138.50;5006752;28;20065;-68
2022/11/10 07:53:18;;;;;;;19.92;3.72;;;;;;;11.38;100.00;102133.13;5006608;28;20112;-67
2022/11/10 07:55:44;;;;;;;26.80;4.90;;;;;;;11.47;100.00;102133.88;5006238;28;20056;-67
2022/11/10 07:58:13;;;;;;;22.17;3.85;;;;;;;11.58;100.00;102145.13;5003505;28;20129;-68
2022/11/10 08:00:38;;;;;;;31.48;4.78;;;;;;;11.63;100.00;102145.88;5006618;28;20029;-65
2022/11/10 08:03:06;;;;;;;18.40;3.70;;;;;;;11.80;100.00;102143.88;5007521;28;20029;-70
2022/11/10 08:05:32;;;;;;;29.20;4.18;;;;;;;11.81;100.00;102150.88;5006139;28;20053;-67
2022/11/10 08:07:57;;;;;;;23.80;4.50;;;;;;;11.86;100.00;102149.06;5006255;28;20096;-67
2022/11/10 08:10:22;;;;;;;30.45;4.30;;;;;;;11.94;100.00;102151.53;5007690;28;20038;-70
2022/11/10 08:12:55;;;;;;;20.08;3.70;;;;;;;12.02;100.00;102154.91;5001600;28;20027;-68
2022/11/10 08:15:21;;;;;;;19.17;3.72;;;;;;;12.03;100.00;102163.69;5000963;28;20117;-70
2022/11/10 08:17:46;;;;;;;34.38;4.28;;;;;;;12.01;100.00;102158.44;5007463;28;20549;-70
2022/11/10 08:20:11;;;;;;;23.98;4.18;;;;;;;12.17;100.00;102166.13;5007282;28;20041;-63
2022/11/10 08:22:37;;;;;;;20.85;4.25;;;;;;;12.31;100.00;102179.06;5007045;28;20029;-69
2022/11/10 08:25:02;;;;;;;20.98;4.13;;;;;;;12.33;100.00;102183.41;5007043;28;20061;-68
2022/11/10 08:27:28;;;;;;;29.08;4.32;;;;;;;12.42;100.00;102179.72;5007299;28;20022;-71
2022/11/10 08:29:53;;;;;;;22.13;4.00;;;;;;;12.40;100.00;102192.06;5021670;28;20021;-63
2022/11/10 08:32:20;;;;;;;19.90;3.83;;;;;;;12.44;100.00;102188.50;5025385;28;20029;-64
2022/11/10 08:34:45;;;;;;;20.00;5.13;;;;;;;12.37;100.00;102187.72;5024296;28;20377;-70
2022/11/10 08:37:10;;;;;;;26.00;3.70;;;;;;;12.32;100.00;102184.31;5024873;28;20104;-66
2022/11/10 08:39:36;;;;;;;19.40;3.58;;;;;;;12.38;100.00;102192.09;5027071;28;20032;-68
2022/11/10 08:42:01;;;;;;;16.42;3.78;;;;;;;12.37;100.00;102187.72;5028888;28;20037;-68
2022/11/10 08:44:26;;;;;;;34.42;10.48;;;;;;;12.54;100.00;102202.38;5029069;28;20021;-74
2022/11/10 08:46:52;;;;;;;18.83;3.97;;;;;;;12.57;100.00;102210.25;5029023;28;20140;-71
2022/11/10 08:49:17;;;;;;;22.13;3.45;;;;;;;12.59;100.00;102207.59;5030562;28;20022;-68
2022/11/10 08:51:42;;;;;;;15.95;3.63;;;;;;;12.60;100.00;102210.19;5030791;28;20028;-69
2022/11/10 08:54:08;;;;;;;23.98;3.50;;;;;;;12.67;100.00;102203.00;5024667;28;20109;-69
2022/11/10 08:56:33;;;;;;;15.68;3.30;;;;;;;12.76;100.00;102202.81;5001714;28;20060;-66
2022/11/10 08:58:59;;;;;;;21.27;3.90;;;;;;;12.77;100.00;102196.59;4995803;28;20226;-68
2022/11/10 09:01:24;;;;;;;27.15;4.85;;;;;;;12.84;100.00;102197.38;5003015;28;20038;-65
2022/11/10 09:03:49;;;;;;;17.58;3.65;;;;;;;13.00;100.00;102194.34;5001643;28;20030;-67
2022/11/10 09:06:15;;;;;;;24.92;3.97;;;;;;;13.00;100.00;102197.00;4998327;28;20014;-65
2022/11/10 09:08:40;;;;;;;23.55;3.20;;;;;;;13.00;100.00;102203.19;5000639;28;20196;-69
2022/11/10 09:11:05;;;;;;;23.73;3.75;;;;;;;13.10;100.00;102201.19;5000707;28;20029;-68
2022/11/10 09:13:31;;;;;;;12.25;2.88;;;;;;;13.26;100.00;102214.06;4998983;28;20109;-71
2022/11/10 09:16:03;;;;;;;31.48;3.90;;;;;;;13.28;100.00;102204.34;4989813;28;20528;-69
2022/11/10 09:18:29;;;;;;;19.60;3.20;;;;;;;13.28;100.00;102206.97;4990603;28;20057;-68
2022/11/10 09:20:55;;;;;;;21.70;3.67;;;;;;;13.46;100.00;102212.75;4990709;28;20073;-68
2022/11/10 09:23:21;;;;;;;18.50;3.30;;;;;;;13.46;100.00;102210.09;4998791;28;20018;-68
2022/11/10 09:25:52;;;;;;;19.15;3.17;;;;;;;13.55;100.00;102216.97;5000454;28;20441;-66
2022/11/10 09:28:18;;;;;;;25.58;3.85;;;;;;;13.56;100.00;102224.00;4998950;28;20541;-69
2022/11/10 09:30:48;;;;;;;25.33;3.55;;;;;;;13.69;100.00;102227.25;4998802;28;20048;-70
2022/11/10 09:33:13;;;;;;;23.65;4.28;;;;;;;13.81;100.00;102221.63;4998165;28;20472;-67
2022/11/10 09:35:39;;;;;;;22.55;3.60;;;;;;;13.95;100.00;102223.91;4993983;28;20041;-68
2022/11/10 09:38:04;;;;;;;18.73;3.20;;;;;;;14.11;100.00;102232.31;4992690;28;20030;-69
2022/11/10 09:41:04;;;;;;;19.08;3.13;;;;;;;14.33;100.00;102233.53;5001021;28;20445;-68
2022/11/10 09:43:56;;;;;;;20.85;3.10;;;;;;;14.43;100.00;102236.78;4998901;28;20393;-68
2022/11/10 09:46:46;;;;;;;19.45;3.50;;;;;;;14.42;100.00;102243.00;5002806;28;20038;-61
2022/11/10 09:49:28;;;;;;;20.42;3.00;;;;;;;14.55;100.00;102244.41;4999506;28;20061;-70
2022/11/10 09:51:55;;;;;;;21.38;3.65;;;;;;;14.72;100.00;102248.38;5002691;28;20083;-70
2022/11/10 09:54:42;;;;;;;27.05;4.38;;;;;;;14.63;100.00;102254.81;5011568;28;20357;-65
2022/11/10 09:57:12;;;;;;;22.35;3.60;;;;;;;14.72;100.00;102265.13;4998857;28;20038;-68
2022/11/10 09:59:37;;;;;;;25.10;4.07;;;;;;;14.82;100.00;102264.91;5004173;28;20392;-68
2022/11/10 10:02:28;;;;;;;18.15;3.35;;;;;;;14.91;100.00;102297.34;5009004;28;20030;-67
2022/11/10 10:05:35;;;;;;;17.48;3.22;;;;;;;14.91;100.00;102310.63;5010012;28;20049;-71
2022/11/10 10:08:01;;;;;;;23.92;4.15;;;;;;;14.99;100.00;102314.84;4977531;28;20119;-65
2022/11/10 10:10:26;;;;;;;15.52;3.58;;;;;;;15.08;100.00;102317.22;5008613;28;20036;-68
2022/11/10 10:13:29;;;;;;;19.63;3.60;;;;;;;15.11;100.00;102322.44;5003495;28;20026;-63
2022/11/10 10:16:16;;;;;;;20.17;3.53;;;;;;;15.20;100.00;102326.59;4996168;28;20370;-68
2022/11/10 10:18:56;;;;;;;23.40;3.53;;;;;;;15.33;100.00;102327.13;5001750;28;20022;-66
2022/11/10 10:21:37;;;;;;;17.42;3.85;;;;;;;15.40;100.00;102323.38;5006470;28;20022;-68
2022/11/10 10:24:03;;;;;;;14.23;3.00;;;;;;;15.50;100.00;102320.44;5005689;28;20037;-67
2022/11/10 10:26:30;;;;;;;20.48;3.65;;;;;;;15.79;100.00;102308.00;4999706;28;20045;-66
2022/11/10 10:28:59;;;;;;;18.55;3.67;;;;;;;15.96;100.00;102319.88;4997323;28;20014;-63
2022/11/10 10:31:29;;;;;;;23.95;3.33;;;;;;;16.02;100.00;102309.06;4999724;28;20018;-67
2022/11/10 10:33:54;;;;;;;18.90;2.88;;;;;;;16.12;100.00;102309.59;4995599;28;20071;-66
2022/11/10 10:36:23;;;;;;;21.67;4.20;;;;;;;16.08;100.00;102319.50;4998740;28;20421;-68
2022/11/10 10:38:51;;;;;;;21.87;3.40;;;;;;;15.99;100.00;102315.34;4997852;28;20488;-69
2022/11/10 10:41:24;;;;;;;22.00;3.50;;;;;;;16.00;100.00;102329.50;4997531;28;20310;-68
2022/11/10 10:43:52;;;;;;;18.88;3.08;;;;;;;15.93;100.00;102320.84;5002662;28;20026;-71
2022/11/10 10:46:25;;;;;;;25.20;3.78;;;;;;;16.03;100.00;102324.97;5005538;28;20037;-67
2022/11/10 10:49:17;;;;;;;18.30;3.78;;;;;;;16.02;100.00;102325.00;5008232;28;20040;-67
2022/11/10 10:51:43;;;;;;;19.30;2.95;;;;;;;15.86;100.00;102336.09;5008585;28;20124;-65
2022/11/10 10:54:31;;;;;;;22.95;3.58;;;;;;;15.66;100.00;102336.75;5008578;28;20517;-68
2022/11/10 10:57:19;;;;;;;18.27;2.90;;;;;;;15.65;100.00;102335.88;5007003;28;20433;-66
2022/11/10 10:59:45;;;;;;;18.90;2.97;;;;;;;15.69;100.00;102339.31;5007501;28;20560;-69
2022/11/10 11:02:28;;;;;;;19.05;3.15;;;;;;;15.69;100.00;102338.44;5005769;28;20065;-70
2022/11/10 11:05:13;;;;;;;19.13;3.53;;;;;;;15.60;100.00;102343.13;5006428;28;20033;-65
2022/11/10 11:07:39;;;;;;;11.40;2.65;;;;;;;15.70;100.00;102335.72;5005754;28;20038;-69
2022/11/10 11:10:19;;;;;;;17.98;2.42;;;;;;;15.58;100.00;102352.94;5006536;28;20032;-68
2022/11/10 11:12:44;;;;;;;20.52;2.83;;;;;;;15.71;100.00;102357.88;5008050;28;20033;-65
2022/11/10 11:15:29;;;;;;;18.33;3.10;;;;;;;15.75;100.00;102365.66;5007342;28;20069;-68
2022/11/10 11:17:59;;;;;;;27.98;3.55;;;;;;;15.92;100.00;102369.59;5008520;28;20080;-66
2022/11/10 11:20:43;;;;;;;20.85;3.67;;;;;;;16.06;100.00;102379.81;5006707;28;20026;-67
2022/11/10 11:23:14;;;;;;;15.45;3.88;;;;;;;16.28;100.00;102376.44;5006717;28;20037;-69
2022/11/10 11:25:41;;;;;;;19.30;3.10;;;;;;;16.28;100.00;102381.75;5003472;28;20036;-69